Time;durP1;ratioP1;P1;durP2;ratioP2;P2;SDS_P1;SDS_P2;PMS_P1;PMS_P2;Temp;Humidity;BMP_temperature;BMP_pressure;BME280_temperature;BME280_humidity;BME280_pressure;Samples;Min_cycle;Max_cycle;Signal;HPM_P1;HPM_P2
2024/01/20 00:01:01;;;;;;;21.35;6.75;;;;;;;;;;5096481;28;20047;-80
2024/01/20 00:03:26;;;;;;;17.83;6.60;;;;;;;;;;5077829;28;20099;-80
2024/01/20 00:05:51;;;;;;;18.80;7.40;;;;;;;;;;5077808;28;20019;-79
2024/01/20 00:08:17;;;;;;;15.27;7.72;;;;;;;;;;5095845;28;20026;-80
2024/01/20 00:10:42;;;;;;;22.55;7.88;;;;;;;;;;5095657;28;20038;-80
2024/01/20 00:13:07;;;;;;;18.30;7.28;;;;;;;;;;5077688;28;20103;-81
2024/01/20 00:15:33;;;;;;;17.50;6.13;;;;;;;;;;5095760;28;20066;-81
2024/01/20 00:17:58;;;;;;;18.10;7.28;;;;;;;;;;5095946;28;20024;-80
2024/01/20 00:20:23;;;;;;;20.23;6.90;;;;;;;;;;5094534;28;20020;-80
2024/01/20 00:22:49;;;;;;;25.13;7.05;;;;;;;;;;5077336;28;20058;-82
2024/01/20 00:25:15;;;;;;;18.02;5.90;;;;;;;;;;5095054;28;20044;-80
2024/01/20 00:27:40;;;;;;;21.30;6.55;;;;;;;;;;5095453;28;20021;-80
2024/01/20 00:30:24;;;;;;;21.60;5.72;;;;;;;;;;5095641;28;20020;-82
2024/01/20 00:32:50;;;;;;;22.10;7.05;;;;;;;;;;5095484;28;20028;-81
2024/01/20 00:35:15;;;;;;;25.40;8.18;;;;;;;;;;5095437;28;20469;-81
2024/01/20 00:37:41;;;;;;;16.20;7.30;;;;;;;;;;5094204;28;20144;-79
2024/01/20 00:40:06;;;;;;;14.82;6.45;;;;;;;;;;5095260;28;20020;-81
2024/01/20 00:42:31;;;;;;;20.83;7.28;;;;;;;;;;5095229;28;20024;-81
2024/01/20 00:44:57;;;;;;;20.30;8.38;;;;;;;;;;5095056;28;20388;-80
2024/01/20 00:47:22;;;;;;;20.58;7.72;;;;;;;;;;5095092;28;20469;-81
2024/01/20 00:49:47;;;;;;;21.77;7.68;;;;;;;;;;5095017;28;20013;-81
2024/01/20 00:52:14;;;;;;;21.85;7.60;;;;;;;;;;5076669;28;20009;-81
2024/01/20 00:54:39;;;;;;;25.77;9.80;;;;;;;;;;5076724;28;20012;-81
2024/01/20 00:57:04;;;;;;;19.33;7.47;;;;;;;;;;5095315;28;20035;-82
2024/01/20 00:59:29;;;;;;;18.48;7.28;;;;;;;;;;5094744;28;20087;-80
2024/01/20 01:01:55;;;;;;;23.63;8.30;;;;;;;;;;5093507;28;20109;-80
2024/01/20 01:04:20;;;;;;;17.67;7.32;;;;;;;;;;5094791;28;20024;-81
2024/01/20 01:06:45;;;;;;;21.13;7.75;;;;;;;;;;5094566;28;20024;-80
2024/01/20 01:09:11;;;;;;;17.30;7.03;;;;;;;;;;5094891;28;20024;-83
2024/01/20 01:11:36;;;;;;;19.15;7.20;;;;;;;;;;5094582;28;20024;-81
2024/01/20 01:14:02;;;;;;;14.32;6.88;;;;;;;;;;5094604;28;20073;-80
2024/01/20 01:16:27;;;;;;;19.40;7.18;;;;;;;;;;5094715;28;20020;-80
2024/01/20 01:18:52;;;;;;;16.67;7.18;;;;;;;;;;5094715;28;20027;-80
2024/01/20 01:21:18;;;;;;;17.65;6.75;;;;;;;;;;5095377;28;20048;-80
2024/01/20 01:23:43;;;;;;;20.25;8.43;;;;;;;;;;5076588;28;20111;-81
2024/01/20 01:26:08;;;;;;;26.25;8.77;;;;;;;;;;5093294;28;20052;-81
2024/01/20 01:28:33;;;;;;;21.55;6.70;;;;;;;;;;5094135;28;20017;-82
2024/01/20 01:30:59;;;;;;;14.18;6.57;;;;;;;;;;5095146;28;20101;-79
2024/01/20 01:33:24;;;;;;;20.88;7.18;;;;;;;;;;5094283;28;20026;-80
2024/01/20 01:35:49;;;;;;;13.57;7.20;;;;;;;;;;5076210;28;20035;-81
2024/01/20 01:38:14;;;;;;;15.20;7.18;;;;;;;;;;5095070;28;20430;-82
2024/01/20 01:40:40;;;;;;;17.33;6.97;;;;;;;;;;5094923;28;20028;-81
2024/01/20 01:43:05;;;;;;;19.33;6.85;;;;;;;;;;5095623;28;20077;-81
2024/01/20 01:45:31;;;;;;;17.77;6.90;;;;;;;;;;5096649;28;20366;-78
2024/01/20 01:47:56;;;;;;;22.75;8.15;;;;;;;;;;5093626;28;20042;-81
2024/01/20 01:50:22;;;;;;;17.10;6.18;;;;;;;;;;5093883;28;20020;-81
2024/01/20 01:52:48;;;;;;;18.25;6.53;;;;;;;;;;5093864;28;20027;-80
2024/01/20 01:55:15;;;;;;;20.08;6.88;;;;;;;;;;5094033;28;20465;-81
2024/01/20 01:57:41;;;;;;;15.52;7.78;;;;;;;;;;5094030;28;20102;-80
2024/01/20 02:00:06;;;;;;;15.68;7.50;;;;;;;;;;5094109;28;20016;-80
2024/01/20 02:02:32;;;;;;;19.77;7.90;;;;;;;;;;5093947;28;20027;-81
2024/01/20 02:04:57;;;;;;;19.42;8.02;;;;;;;;;;5093772;28;20016;-80
2024/01/20 02:07:22;;;;;;;21.45;8.75;;;;;;;;;;5093770;28;20096;-80
2024/01/20 02:09:48;;;;;;;14.57;6.35;;;;;;;;;;5094221;28;20016;-81
2024/01/20 02:12:14;;;;;;;21.63;7.55;;;;;;;;;;5093840;28;20020;-80
2024/01/20 02:14:41;;;;;;;18.25;7.00;;;;;;;;;;5093823;28;20023;-81
2024/01/20 02:17:06;;;;;;;15.13;7.70;;;;;;;;;;5096918;28;20020;-80
2024/01/20 02:19:35;;;;;;;20.77;7.32;;;;;;;;;;5107998;28;20016;-81
2024/01/20 02:22:08;;;;;;;14.45;7.13;;;;;;;;;;5112714;28;20094;-80
2024/01/20 02:24:33;;;;;;;15.35;7.00;;;;;;;;;;5116029;28;20019;-81
2024/01/20 02:27:00;;;;;;;23.58;7.15;;;;;;;;;;5115037;28;20020;-80
2024/01/20 02:29:25;;;;;;;13.70;6.53;;;;;;;;;;5111270;28;20031;-81
2024/01/20 02:31:50;;;;;;;13.90;6.93;;;;;;;;;;5108227;28;20028;-82
2024/01/20 02:34:16;;;;;;;13.25;7.00;;;;;;;;;;5107385;28;20422;-81
2024/01/20 02:36:41;;;;;;;16.73;7.20;;;;;;;;;;5103644;28;20044;-79
2024/01/20 02:39:06;;;;;;;17.17;8.10;;;;;;;;;;5093914;28;20128;-81
2024/01/20 02:41:32;;;;;;;14.77;6.97;;;;;;;;;;5093579;28;20028;-81
2024/01/20 02:43:57;;;;;;;29.67;7.72;;;;;;;;;;5093664;28;20374;-80
2024/01/20 02:46:22;;;;;;;18.83;7.30;;;;;;;;;;5093498;28;20510;-80
2024/01/20 02:48:47;;;;;;;11.13;6.40;;;;;;;;;;5075109;28;20032;-80
2024/01/20 02:51:13;;;;;;;17.20;7.05;;;;;;;;;;5093684;28;20020;-81
2024/01/20 02:53:38;;;;;;;18.02;6.80;;;;;;;;;;5093242;28;20020;-80
2024/01/20 02:56:03;;;;;;;14.48;6.38;;;;;;;;;;5093133;28;20028;-80
2024/01/20 02:58:29;;;;;;;14.15;6.88;;;;;;;;;;5093435;28;20373;-81
2024/01/20 03:00:54;;;;;;;14.50;6.63;;;;;;;;;;5095384;28;20055;-80
2024/01/20 03:03:19;;;;;;;15.45;7.30;;;;;;;;;;5097053;28;20462;-83
2024/01/20 03:05:44;;;;;;;14.68;6.93;;;;;;;;;;5097013;28;20036;-80
2024/01/20 03:08:10;;;;;;;24.30;8.27;;;;;;;;;;5097387;28;20028;-80
2024/01/20 03:10:35;;;;;;;13.68;6.22;;;;;;;;;;5097176;28;20024;-81
2024/01/20 03:13:00;;;;;;;14.25;7.65;;;;;;;;;;5078912;28;20496;-80
2024/01/20 03:15:26;;;;;;;13.88;6.88;;;;;;;;;;5078572;28;20020;-79
2024/01/20 03:17:51;;;;;;;16.00;6.93;;;;;;;;;;5096930;28;20053;-80
2024/01/20 03:20:16;;;;;;;13.63;6.25;;;;;;;;;;5096919;28;20099;-81
2024/01/20 03:22:41;;;;;;;14.40;7.50;;;;;;;;;;5096994;28;20028;-80
2024/01/20 03:25:07;;;;;;;11.80;6.97;;;;;;;;;;5096733;28;20040;-81
2024/01/20 03:27:32;;;;;;;14.75;6.05;;;;;;;;;;5096652;28;20026;-80
2024/01/20 03:29:57;;;;;;;16.23;6.63;;;;;;;;;;5096879;28;20024;-81
2024/01/20 03:32:23;;;;;;;13.25;5.78;;;;;;;;;;5097072;28;20479;-81
2024/01/20 03:34:48;;;;;;;13.13;5.95;;;;;;;;;;5097316;28;20039;-81
2024/01/20 03:37:13;;;;;;;12.38;6.22;;;;;;;;;;5098127;28;20020;-80
2024/01/20 03:39:39;;;;;;;11.57;6.03;;;;;;;;;;5097026;28;20026;-80
2024/01/20 03:42:04;;;;;;;11.50;6.53;;;;;;;;;;5096460;28;20473;-81
2024/01/20 03:44:29;;;;;;;9.30;5.38;;;;;;;;;;5096648;28;20024;-79
2024/01/20 03:46:54;;;;;;;16.63;5.55;;;;;;;;;;5096468;28;20032;-81
2024/01/20 03:49:20;;;;;;;12.52;5.22;;;;;;;;;;5096231;28;20046;-80
2024/01/20 03:51:45;;;;;;;12.13;5.97;;;;;;;;;;5096637;28;20027;-81
2024/01/20 03:54:10;;;;;;;9.43;4.95;;;;;;;;;;5096678;28;20031;-82
2024/01/20 03:56:43;;;;;;;12.25;4.80;;;;;;;;;;5097100;28;20036;-81
2024/01/20 03:59:08;;;;;;;11.77;4.88;;;;;;;;;;5078471;28;20043;-79
2024/01/20 04:01:34;;;;;;;8.90;4.60;;;;;;;;;;5096430;28;20381;-81
2024/01/20 04:03:59;;;;;;;8.75;4.75;;;;;;;;;;5096079;28;20024;-82
2024/01/20 04:06:24;;;;;;;9.00;4.82;;;;;;;;;;5078356;28;20031;-80
2024/01/20 04:08:49;;;;;;;11.48;5.13;;;;;;;;;;5095943;28;20522;-79
2024/01/20 04:11:15;;;;;;;11.07;5.10;;;;;;;;;;5096032;28;20089;-81
2024/01/20 04:13:40;;;;;;;12.65;5.25;;;;;;;;;;5096484;28;20095;-79
2024/01/20 04:16:05;;;;;;;10.00;4.20;;;;;;;;;;5096237;28;20022;-81
2024/01/20 04:18:31;;;;;;;10.82;4.93;;;;;;;;;;5095974;28;20035;-81
2024/01/20 04:20:56;;;;;;;9.40;4.47;;;;;;;;;;5096020;28;20346;-81
2024/01/20 04:23:21;;;;;;;15.38;5.63;;;;;;;;;;5096245;28;20039;-81
2024/01/20 04:25:47;;;;;;;11.60;4.60;;;;;;;;;;5074183;28;20526;-80
2024/01/20 04:28:12;;;;;;;6.93;4.13;;;;;;;;;;5075822;28;20381;-80
2024/01/20 04:30:37;;;;;;;11.25;5.07;;;;;;;;;;5075761;28;20458;-81
2024/01/20 04:33:03;;;;;;;9.13;4.80;;;;;;;;;;5074469;28;20025;-79
2024/01/20 04:35:28;;;;;;;9.88;3.97;;;;;;;;;;5074582;28;20450;-79
2024/01/20 04:37:53;;;;;;;10.00;4.70;;;;;;;;;;5075144;28;20055;-82
2024/01/20 04:40:18;;;;;;;16.50;4.85;;;;;;;;;;5075400;28;20466;-82
2024/01/20 04:42:44;;;;;;;11.02;4.95;;;;;;;;;;5075431;28;20055;-81
2024/01/20 04:45:11;;;;;;;8.15;4.50;;;;;;;;;;5075347;28;20439;-82
2024/01/20 04:47:36;;;;;;;11.48;4.57;;;;;;;;;;5074961;28;20485;-80
2024/01/20 04:50:01;;;;;;;10.35;4.13;;;;;;;;;;5090632;28;20017;-80
2024/01/20 04:52:27;;;;;;;12.10;4.82;;;;;;;;;;5073568;28;20020;-83
2024/01/20 04:54:52;;;;;;;10.65;4.20;;;;;;;;;;5090492;28;20023;-81
2024/01/20 04:57:19;;;;;;;11.23;4.90;;;;;;;;;;5074630;28;20475;-81
2024/01/20 04:59:45;;;;;;;11.95;4.55;;;;;;;;;;5074782;28;20032;-81
2024/01/20 05:02:10;;;;;;;9.73;4.63;;;;;;;;;;5074762;28;20103;-81
2024/01/20 05:04:35;;;;;;;12.75;5.25;;;;;;;;;;5074789;28;20354;-80
2024/01/20 05:07:00;;;;;;;9.70;5.13;;;;;;;;;;5074964;28;20032;-81
2024/01/20 05:09:26;;;;;;;12.05;5.07;;;;;;;;;;5075323;28;20024;-80
2024/01/20 05:11:51;;;;;;;11.75;4.60;;;;;;;;;;5074584;28;20032;-80
2024/01/20 05:14:16;;;;;;;15.80;5.05;;;;;;;;;;5074674;28;20078;-81
2024/01/20 05:16:41;;;;;;;9.32;4.05;;;;;;;;;;5089932;28;20021;-81
2024/01/20 05:19:07;;;;;;;9.38;4.35;;;;;;;;;;5074254;28;20017;-80
2024/01/20 05:21:32;;;;;;;8.88;4.03;;;;;;;;;;5074252;28;20485;-79
2024/01/20 05:23:57;;;;;;;9.98;4.30;;;;;;;;;;5073947;28;20112;-81
2024/01/20 05:26:23;;;;;;;8.07;4.03;;;;;;;;;;5089412;28;20051;-81
2024/01/20 05:28:48;;;;;;;15.38;4.72;;;;;;;;;;5076400;28;20110;-81
2024/01/20 05:31:14;;;;;;;12.32;5.63;;;;;;;;;;5094266;28;20416;-81
2024/01/20 05:33:39;;;;;;;9.18;4.38;;;;;;;;;;5076032;28;20020;-80
2024/01/20 05:36:04;;;;;;;9.25;5.05;;;;;;;;;;5094721;28;20024;-79
2024/01/20 05:38:30;;;;;;;8.98;4.20;;;;;;;;;;5076086;28;20165;-81
2024/01/20 05:40:55;;;;;;;9.23;4.38;;;;;;;;;;5076041;28;20065;-81
2024/01/20 05:43:21;;;;;;;10.00;4.68;;;;;;;;;;5076255;28;20024;-82
2024/01/20 05:45:46;;;;;;;9.82;4.13;;;;;;;;;;5094873;28;20038;-81
2024/01/20 05:48:12;;;;;;;14.32;4.45;;;;;;;;;;5076334;28;20028;-80
2024/01/20 05:50:37;;;;;;;11.07;4.20;;;;;;;;;;5094650;28;20042;-80
2024/01/20 05:53:03;;;;;;;12.77;4.57;;;;;;;;;;5094658;28;20451;-82
2024/01/20 05:55:28;;;;;;;17.50;5.30;;;;;;;;;;5076577;28;20160;-81
2024/01/20 05:57:54;;;;;;;8.23;4.45;;;;;;;;;;5094019;28;20016;-81
2024/01/20 06:00:21;;;;;;;9.50;4.90;;;;;;;;;;5094085;28;20024;-81
2024/01/20 06:02:46;;;;;;;6.63;4.03;;;;;;;;;;5099318;28;20020;-80
2024/01/20 06:05:12;;;;;;;17.38;4.55;;;;;;;;;;5099771;28;20019;-80
2024/01/20 06:07:37;;;;;;;10.68;4.57;;;;;;;;;;5100243;28;20024;-80
2024/01/20 06:10:02;;;;;;;9.68;4.47;;;;;;;;;;5097816;28;20073;-82
2024/01/20 06:12:27;;;;;;;8.82;4.95;;;;;;;;;;5096442;28;20020;-81
2024/01/20 06:14:53;;;;;;;12.35;4.88;;;;;;;;;;5076063;28;20020;-80
2024/01/20 06:17:18;;;;;;;10.80;5.65;;;;;;;;;;5093400;28;20087;-82
2024/01/20 06:19:43;;;;;;;14.73;4.80;;;;;;;;;;5094025;28;20013;-81
2024/01/20 06:22:09;;;;;;;12.90;5.80;;;;;;;;;;5093679;28;20520;-81
2024/01/20 06:24:34;;;;;;;11.10;5.57;;;;;;;;;;5093400;28;20016;-82
2024/01/20 06:26:59;;;;;;;14.23;6.40;;;;;;;;;;5093645;28;20051;-80
2024/01/20 06:29:24;;;;;;;13.27;5.75;;;;;;;;;;5093590;28;20039;-81
2024/01/20 06:31:50;;;;;;;12.82;6.05;;;;;;;;;;5093500;28;20097;-80
2024/01/20 06:34:15;;;;;;;15.60;6.68;;;;;;;;;;5093847;28;20342;-81
2024/01/20 06:36:41;;;;;;;18.17;6.68;;;;;;;;;;5096987;28;20020;-81
2024/01/20 06:39:06;;;;;;;16.80;7.40;;;;;;;;;;5097781;28;20028;-81
2024/01/20 06:41:32;;;;;;;21.85;7.65;;;;;;;;;;5097753;28;20176;-81
2024/01/20 06:43:57;;;;;;;18.30;7.47;;;;;;;;;;5079550;28;20020;-81
2024/01/20 06:46:22;;;;;;;20.40;7.60;;;;;;;;;;5097849;28;20020;-81
2024/01/20 06:48:48;;;;;;;16.85;7.47;;;;;;;;;;5098585;28;20019;-80
2024/01/20 06:51:16;;;;;;;23.55;7.85;;;;;;;;;;5099034;28;20364;-81
2024/01/20 06:53:43;;;;;;;16.30;6.65;;;;;;;;;;5114702;28;20031;-81
2024/01/20 06:56:08;;;;;;;14.70;6.82;;;;;;;;;;5113190;28;20133;-80
2024/01/20 06:58:33;;;;;;;16.50;7.72;;;;;;;;;;5115012;28;20032;-81
2024/01/20 07:00:59;;;;;;;18.75;6.68;;;;;;;;;;5118795;28;20027;-81
2024/01/20 07:03:24;;;;;;;23.00;7.97;;;;;;;;;;5110544;28;20020;-79
2024/01/20 07:05:50;;;;;;;21.70;9.30;;;;;;;;;;5092888;28;20043;-80
2024/01/20 07:08:15;;;;;;;20.33;7.05;;;;;;;;;;5108549;28;20070;-81
2024/01/20 07:10:40;;;;;;;18.75;7.10;;;;;;;;;;5100041;28;20040;-84
2024/01/20 07:13:05;;;;;;;32.33;9.43;;;;;;;;;;5099914;28;20096;-80
2024/01/20 07:15:31;;;;;;;28.27;8.60;;;;;;;;;;5101684;28;20046;-81
2024/01/20 07:17:56;;;;;;;17.83;8.20;;;;;;;;;;5100185;28;20020;-83
2024/01/20 07:20:22;;;;;;;20.25;6.97;;;;;;;;;;5098954;28;20036;-82
2024/01/20 07:22:48;;;;;;;16.05;7.25;;;;;;;;;;5080282;28;20544;-82
2024/01/20 07:25:14;;;;;;;23.33;7.22;;;;;;;;;;5076936;28;20072;-81
2024/01/20 07:27:39;;;;;;;24.30;7.40;;;;;;;;;;5078263;28;20055;-79
2024/01/20 07:30:04;;;;;;;25.85;8.27;;;;;;;;;;5076394;28;20009;-82
2024/01/20 07:32:30;;;;;;;20.00;7.43;;;;;;;;;;5077078;28;20013;-81
2024/01/20 07:34:55;;;;;;;28.77;7.38;;;;;;;;;;5076962;28;20025;-82
2024/01/20 07:37:20;;;;;;;19.02;5.95;;;;;;;;;;5076890;28;20016;-80
2024/01/20 07:39:47;;;;;;;16.25;5.35;;;;;;;;;;5076784;28;20388;-80
2024/01/20 07:42:12;;;;;;;9.93;5.22;;;;;;;;;;5076412;28;20016;-80
2024/01/20 07:44:37;;;;;;;9.95;4.63;;;;;;;;;;5076469;28;20067;-80
2024/01/20 07:47:03;;;;;;;17.50;6.70;;;;;;;;;;5075749;28;20358;-80
2024/01/20 07:49:28;;;;;;;12.73;5.63;;;;;;;;;;5076591;28;20374;-81
2024/01/20 07:51:53;;;;;;;10.77;5.60;;;;;;;;;;5076585;28;20024;-82
2024/01/20 07:54:19;;;;;;;16.85;6.38;;;;;;;;;;5091828;28;20030;-82
2024/01/20 07:56:44;;;;;;;12.52;5.93;;;;;;;;;;5076638;28;20013;-80
2024/01/20 07:59:09;;;;;;;15.02;5.85;;;;;;;;;;5076295;28;20358;-81
2024/01/20 08:01:34;;;;;;;11.35;5.38;;;;;;;;;;5074566;28;20016;-80
2024/01/20 08:04:00;;;;;;;14.85;6.07;;;;;;;;;;5076112;28;20404;-80
2024/01/20 08:06:27;;;;;;;12.48;5.88;;;;;;;;;;5075947;28;20424;-80
2024/01/20 08:08:52;;;;;;;16.80;6.38;;;;;;;;;;5076103;28;20024;-81
2024/01/20 08:11:17;;;;;;;16.98;6.47;;;;;;;;;;5076116;28;20071;-81
2024/01/20 08:13:43;;;;;;;14.48;6.82;;;;;;;;;;5074562;28;20372;-81
2024/01/20 08:16:08;;;;;;;15.05;6.13;;;;;;;;;;5074468;28;20023;-81
2024/01/20 08:18:34;;;;;;;15.75;6.28;;;;;;;;;;5076234;28;20024;-81
2024/01/20 08:21:03;;;;;;;12.18;5.93;;;;;;;;;;5075821;28;20024;-80
2024/01/20 08:23:29;;;;;;;12.27;5.68;;;;;;;;;;5074651;28;20055;-81
2024/01/20 08:25:54;;;;;;;14.15;5.57;;;;;;;;;;5087040;28;20084;-80
2024/01/20 08:28:19;;;;;;;15.02;7.25;;;;;;;;;;5095959;28;20016;-82
2024/01/20 08:30:45;;;;;;;13.93;6.05;;;;;;;;;;5095766;28;20020;-82
2024/01/20 08:33:10;;;;;;;13.95;6.82;;;;;;;;;;5077668;28;20027;-81
2024/01/20 08:35:35;;;;;;;13.13;6.57;;;;;;;;;;5095848;28;20023;-81
2024/01/20 08:38:01;;;;;;;14.13;5.93;;;;;;;;;;5095474;28;20091;-81
2024/01/20 08:40:26;;;;;;;17.35;7.55;;;;;;;;;;5095726;28;20020;-82
2024/01/20 08:42:51;;;;;;;15.18;6.75;;;;;;;;;;5095518;28;20509;-81
2024/01/20 08:45:16;;;;;;;12.35;6.50;;;;;;;;;;5095295;28;20098;-82
2024/01/20 08:47:43;;;;;;;16.67;7.25;;;;;;;;;;5076945;28;20358;-81
2024/01/20 08:50:08;;;;;;;14.90;6.32;;;;;;;;;;5077171;28;20008;-81
2024/01/20 08:52:34;;;;;;;15.63;7.10;;;;;;;;;;5095175;28;20024;-80
2024/01/20 08:54:59;;;;;;;17.00;7.10;;;;;;;;;;5095371;28;20404;-80
2024/01/20 08:57:25;;;;;;;13.70;7.50;;;;;;;;;;5095153;28;20153;-82
2024/01/20 08:59:50;;;;;;;14.32;7.00;;;;;;;;;;5094885;28;20020;-81
2024/01/20 09:02:15;;;;;;;14.70;7.07;;;;;;;;;;5095393;28;20092;-80
2024/01/20 09:04:40;;;;;;;18.42;7.88;;;;;;;;;;5094849;28;20016;-81
2024/01/20 09:07:06;;;;;;;17.48;7.97;;;;;;;;;;5060368;28;20027;-81
2024/01/20 09:09:31;;;;;;;12.90;7.25;;;;;;;;;;5094945;28;20024;-81
2024/01/20 09:11:56;;;;;;;14.02;6.97;;;;;;;;;;5095375;28;20016;-81
2024/01/20 09:14:22;;;;;;;14.63;7.28;;;;;;;;;;5094708;28;20092;-81
2024/01/20 09:16:47;;;;;;;19.60;7.28;;;;;;;;;;5094783;28;20408;-80
2024/01/20 09:19:13;;;;;;;12.77;7.10;;;;;;;;;;5076490;28;20020;-80
2024/01/20 09:21:38;;;;;;;14.55;6.65;;;;;;;;;;5094880;28;20091;-82
2024/01/20 09:24:03;;;;;;;17.85;6.63;;;;;;;;;;5094595;28;20120;-81
2024/01/20 09:26:29;;;;;;;12.40;5.88;;;;;;;;;;5094593;28;20056;-82
2024/01/20 09:28:54;;;;;;;17.77;6.93;;;;;;;;;;5076204;28;20016;-81
2024/01/20 09:31:19;;;;;;;14.15;6.15;;;;;;;;;;5094807;28;20027;-80
2024/01/20 09:33:45;;;;;;;11.02;6.65;;;;;;;;;;5094397;28;20020;-80
2024/01/20 09:36:10;;;;;;;12.35;6.25;;;;;;;;;;5076779;28;20095;-82
2024/01/20 09:38:36;;;;;;;11.27;6.63;;;;;;;;;;5076212;28;20357;-81
2024/01/20 09:41:01;;;;;;;12.93;5.95;;;;;;;;;;5094658;28;20039;-84
2024/01/20 09:43:29;;;;;;;17.58;7.00;;;;;;;;;;5094338;28;20224;-81
2024/01/20 09:45:55;;;;;;;11.85;6.13;;;;;;;;;;5094687;28;20031;-82
2024/01/20 09:48:21;;;;;;;17.40;7.32;;;;;;;;;;5094511;28;20024;-84
2024/01/20 09:50:47;;;;;;;17.10;6.57;;;;;;;;;;5094443;28;20107;-84
2024/01/20 09:53:16;;;;;;;13.73;5.68;;;;;;;;;;5094265;28;20468;-81
2024/01/20 09:55:42;;;;;;;10.45;6.30;;;;;;;;;;5076020;28;20020;-82
2024/01/20 09:58:12;;;;;;;9.13;5.85;;;;;;;;;;5075926;28;20385;-83
2024/01/20 10:00:38;;;;;;;14.70;6.65;;;;;;;;;;5094529;28;20156;-81
2024/01/20 10:03:05;;;;;;;11.23;5.75;;;;;;;;;;5094442;28;20028;-82
2024/01/20 10:05:31;;;;;;;13.52;5.55;;;;;;;;;;5076370;28;20020;-81
2024/01/20 10:07:57;;;;;;;10.80;5.45;;;;;;;;;;5095158;28;20082;-82
2024/01/20 10:10:22;;;;;;;9.75;5.50;;;;;;;;;;5095256;28;20027;-81
2024/01/20 10:12:51;;;;;;;10.95;6.10;;;;;;;;;;5096580;28;20023;-82
2024/01/20 10:15:19;;;;;;;13.43;5.57;;;;;;;;;;5094551;28;20488;-81
2024/01/20 10:17:45;;;;;;;12.45;5.40;;;;;;;;;;5093977;28;20107;-80
2024/01/20 10:20:17;;;;;;;8.85;5.20;;;;;;;;;;5094648;28;20055;-83
2024/01/20 10:22:42;;;;;;;8.98;4.18;;;;;;;;;;5094159;28;20028;-81
2024/01/20 10:25:08;;;;;;;6.32;3.85;;;;;;;;;;5094302;28;20039;-81
2024/01/20 10:27:33;;;;;;;11.98;4.82;;;;;;;;;;5076297;28;20369;-81
2024/01/20 10:29:58;;;;;;;11.60;5.22;;;;;;;;;;5076128;28;20051;-80
2024/01/20 10:32:24;;;;;;;9.05;4.70;;;;;;;;;;5094581;28;20425;-82
2024/01/20 10:34:49;;;;;;;10.98;5.03;;;;;;;;;;5093850;28;20091;-81
2024/01/20 10:37:14;;;;;;;10.93;5.57;;;;;;;;;;5075417;28;20487;-83
2024/01/20 10:39:42;;;;;;;14.10;5.72;;;;;;;;;;5076133;28;20028;-82
2024/01/20 10:42:12;;;;;;;12.48;6.20;;;;;;;;;;5094617;28;20499;-81
2024/01/20 10:44:38;;;;;;;12.82;5.60;;;;;;;;;;5093810;28;20024;-81
2024/01/20 10:47:08;;;;;;;10.52;4.88;;;;;;;;;;5075978;28;20042;-82
2024/01/20 10:49:33;;;;;;;12.52;5.35;;;;;;;;;;5093950;28;20028;-81
2024/01/20 10:51:59;;;;;;;13.60;6.90;;;;;;;;;;5075467;28;20031;-80
2024/01/20 10:54:25;;;;;;;13.52;6.15;;;;;;;;;;5093587;28;20372;-81
2024/01/20 10:56:50;;;;;;;15.57;5.70;;;;;;;;;;5096147;28;20020;-83
2024/01/20 10:59:17;;;;;;;8.70;5.80;;;;;;;;;;5078276;28;20031;-82
2024/01/20 11:01:43;;;;;;;11.43;5.70;;;;;;;;;;5096111;28;20109;-80
2024/01/20 11:04:09;;;;;;;15.40;5.65;;;;;;;;;;5096721;28;20028;-81
2024/01/20 11:06:37;;;;;;;14.80;6.57;;;;;;;;;;5097029;28;20487;-81
2024/01/20 11:09:02;;;;;;;13.10;5.80;;;;;;;;;;5097361;28;20024;-81
2024/01/20 11:11:29;;;;;;;14.13;7.20;;;;;;;;;;5079036;28;20050;-82
2024/01/20 11:13:58;;;;;;;15.02;6.45;;;;;;;;;;5095521;28;20020;-80
2024/01/20 11:16:23;;;;;;;15.90;6.40;;;;;;;;;;5094417;28;20031;-81
2024/01/20 11:18:49;;;;;;;13.52;6.68;;;;;;;;;;5095044;28;20020;-81
2024/01/20 11:21:15;;;;;;;13.75;6.82;;;;;;;;;;5096766;28;20022;-81
2024/01/20 11:23:44;;;;;;;11.85;6.05;;;;;;;;;;5089097;28;20043;-80
2024/01/20 11:26:11;;;;;;;16.10;7.10;;;;;;;;;;5107455;28;20048;-81
2024/01/20 11:28:36;;;;;;;13.73;6.10;;;;;;;;;;5111259;28;20016;-81
2024/01/20 11:31:05;;;;;;;15.25;6.60;;;;;;;;;;5113737;28;20473;-81
2024/01/20 11:33:31;;;;;;;12.65;5.85;;;;;;;;;;5114690;28;20035;-82
2024/01/20 11:35:56;;;;;;;14.27;6.50;;;;;;;;;;5117019;28;20016;-82
2024/01/20 11:38:21;;;;;;;15.00;5.90;;;;;;;;;;5112645;28;20020;-81
2024/01/20 11:41:00;;;;;;;13.90;6.00;;;;;;;;;;5110305;28;20031;-83
2024/01/20 11:43:26;;;;;;;11.20;5.57;;;;;;;;;;5091819;28;20432;-82
2024/01/20 11:45:51;;;;;;;14.85;6.22;;;;;;;;;;5089194;28;20020;-81
2024/01/20 11:48:18;;;;;;;16.40;6.32;;;;;;;;;;5102895;28;20022;-81
2024/01/20 11:50:43;;;;;;;11.05;5.95;;;;;;;;;;5084934;28;20020;-81
2024/01/20 11:53:09;;;;;;;13.38;6.32;;;;;;;;;;5102260;28;20023;-80
2024/01/20 11:55:34;;;;;;;11.95;5.45;;;;;;;;;;5102119;28;20043;-81
2024/01/20 11:57:59;;;;;;;10.02;5.28;;;;;;;;;;5100738;28;20047;-80
2024/01/20 12:00:25;;;;;;;12.52;4.88;;;;;;;;;;5097330;28;20054;-82
2024/01/20 12:02:51;;;;;;;8.27;4.63;;;;;;;;;;5099909;28;20031;-82
2024/01/20 12:05:16;;;;;;;11.43;5.55;;;;;;;;;;5100451;28;20035;-82
2024/01/20 12:07:42;;;;;;;13.40;6.28;;;;;;;;;;5099678;28;20489;-82
2024/01/20 12:10:07;;;;;;;11.40;5.93;;;;;;;;;;5101018;28;20012;-79
2024/01/20 12:12:32;;;;;;;14.30;6.03;;;;;;;;;;5102559;28;20024;-82
2024/01/20 12:14:58;;;;;;;11.10;4.90;;;;;;;;;;5096392;28;20020;-83
2024/01/20 12:17:24;;;;;;;10.02;5.28;;;;;;;;;;5096469;28;20046;-82
2024/01/20 12:19:49;;;;;;;12.73;5.03;;;;;;;;;;5096471;28;20023;-82
2024/01/20 12:22:15;;;;;;;10.90;5.82;;;;;;;;;;5096221;28;20020;-82
2024/01/20 12:24:46;;;;;;;10.02;5.32;;;;;;;;;;5095939;28;20511;-81
2024/01/20 12:27:12;;;;;;;12.85;6.25;;;;;;;;;;5096270;28;20015;-82
2024/01/20 12:29:37;;;;;;;11.57;6.10;;;;;;;;;;5095952;28;20035;-82
2024/01/20 12:32:03;;;;;;;8.48;5.35;;;;;;;;;;5096078;28;20020;-82
2024/01/20 12:34:28;;;;;;;8.43;4.93;;;;;;;;;;5096223;28;20562;-82
2024/01/20 12:36:54;;;;;;;9.23;4.75;;;;;;;;;;5096128;28;20009;-81
2024/01/20 12:39:20;;;;;;;9.98;4.65;;;;;;;;;;5077545;28;20058;-82
2024/01/20 12:41:45;;;;;;;10.27;5.00;;;;;;;;;;5095785;28;20039;-83
2024/01/20 12:44:10;;;;;;;8.00;4.20;;;;;;;;;;5095616;28;20024;-81
2024/01/20 12:46:35;;;;;;;7.47;4.70;;;;;;;;;;5096306;28;20024;-82
2024/01/20 12:49:01;;;;;;;13.55;4.82;;;;;;;;;;5096394;28;20445;-81
2024/01/20 12:51:27;;;;;;;9.10;4.70;;;;;;;;;;5096737;28;20065;-81
2024/01/20 12:53:52;;;;;;;11.32;4.70;;;;;;;;;;5078942;28;20050;-81
2024/01/20 12:56:18;;;;;;;11.82;4.32;;;;;;;;;;5097172;28;20453;-82
2024/01/20 12:58:43;;;;;;;8.30;4.22;;;;;;;;;;5096035;28;20028;-83
2024/01/20 13:01:08;;;;;;;9.30;4.70;;;;;;;;;;5078099;28;20469;-82
2024/01/20 13:03:33;;;;;;;10.13;4.90;;;;;;;;;;5096321;28;20024;-82
2024/01/20 13:05:59;;;;;;;11.35;4.90;;;;;;;;;;5095935;28;20024;-81
2024/01/20 13:08:24;;;;;;;7.45;4.85;;;;;;;;;;5077027;28;20028;-81
2024/01/20 13:10:50;;;;;;;9.48;4.85;;;;;;;;;;5096636;28;20035;-82
2024/01/20 13:13:16;;;;;;;10.82;5.43;;;;;;;;;;5086568;28;20027;-82
2024/01/20 13:15:42;;;;;;;12.45;5.13;;;;;;;;;;5104981;28;20048;-82
2024/01/20 13:18:07;;;;;;;10.13;4.60;;;;;;;;;;5104811;28;20020;-81
2024/01/20 13:20:32;;;;;;;10.65;5.15;;;;;;;;;;5101088;28;20077;-81
2024/01/20 13:22:57;;;;;;;11.07;5.18;;;;;;;;;;5095963;28;20377;-82
2024/01/20 13:25:23;;;;;;;9.38;5.00;;;;;;;;;;5095832;28;20052;-82
2024/01/20 13:27:48;;;;;;;7.57;4.95;;;;;;;;;;5095463;28;20023;-81
2024/01/20 13:30:14;;;;;;;8.13;4.90;;;;;;;;;;5095506;28;20073;-80
2024/01/20 13:32:40;;;;;;;14.13;5.50;;;;;;;;;;5077081;28;20451;-81
2024/01/20 13:35:07;;;;;;;6.60;4.10;;;;;;;;;;5095067;28;20446;-82
2024/01/20 13:37:32;;;;;;;9.93;5.15;;;;;;;;;;5095619;28;20024;-83
2024/01/20 13:39:57;;;;;;;10.88;4.88;;;;;;;;;;5095297;28;20031;-82
2024/01/20 13:42:23;;;;;;;7.68;4.72;;;;;;;;;;5094820;28;20024;-81
2024/01/20 13:44:48;;;;;;;10.52;4.95;;;;;;;;;;5094097;28;20103;-81
2024/01/20 13:47:13;;;;;;;8.45;5.03;;;;;;;;;;5094343;28;20044;-81
2024/01/20 13:49:38;;;;;;;10.68;4.88;;;;;;;;;;5094617;28;20035;-80
2024/01/20 13:52:04;;;;;;;9.80;4.65;;;;;;;;;;5077850;28;20472;-80
2024/01/20 13:54:29;;;;;;;10.43;4.28;;;;;;;;;;5098653;28;20040;-81
2024/01/20 13:56:54;;;;;;;8.98;5.20;;;;;;;;;;5100588;28;20380;-80
2024/01/20 13:59:20;;;;;;;7.47;4.63;;;;;;;;;;5100200;28;20090;-82
2024/01/20 14:01:45;;;;;;;7.20;4.40;;;;;;;;;;5081021;28;20428;-82
2024/01/20 14:04:10;;;;;;;7.57;4.18;;;;;;;;;;5094528;28;20106;-82
2024/01/20 14:06:36;;;;;;;12.23;5.20;;;;;;;;;;5076015;28;20148;-80
2024/01/20 14:09:03;;;;;;;9.70;4.47;;;;;;;;;;5094009;28;20458;-81
2024/01/20 14:11:28;;;;;;;11.65;5.53;;;;;;;;;;5094095;28;20027;-82
2024/01/20 14:13:53;;;;;;;9.20;5.00;;;;;;;;;;5094152;28;20020;-81
2024/01/20 14:16:19;;;;;;;10.57;4.68;;;;;;;;;;5094042;28;20132;-83
2024/01/20 14:18:44;;;;;;;7.97;5.20;;;;;;;;;;5094053;28;20028;-81
2024/01/20 14:21:10;;;;;;;11.10;5.60;;;;;;;;;;5076035;28;20381;-83
2024/01/20 14:23:35;;;;;;;8.13;5.00;;;;;;;;;;5094393;28;20028;-83